sensor_id;sensor_type;location;lat;lon;timestamp;pressure;altitude;pressure_sealevel;temperature;humidity
62126;BME280;48112;53.282;6.150;2022-07-09T00:01:02;102758.59;;;20.94;65.40
62126;BME280;48112;53.282;6.150;2022-07-09T00:02:05;102758.59;;;20.94;65.34
62126;BME280;48112;53.282;6.150;2022-07-09T00:03:09;102755.84;;;20.94;65.38
62126;BME280;48112;53.282;6.150;2022-07-09T00:04:12;102754.69;;;20.95;65.13
62126;BME280;48112;53.282;6.150;2022-07-09T00:05:17;102759.06;;;20.96;65.13
62126;BME280;48112;53.282;6.150;2022-07-09T00:06:21;102757.44;;;20.95;65.33
62126;BME280;48112;53.282;6.150;2022-07-09T00:07:24;102747.59;;;20.94;65.44
62126;BME280;48112;53.282;6.150;2022-07-09T00:08:29;102758.69;;;20.98;65.36
62126;BME280;48112;53.282;6.150;2022-07-09T00:09:34;102761.84;;;21.00;65.48
62126;BME280;48112;53.282;6.150;2022-07-09T00:10:37;102762.28;;;21.02;65.40
62126;BME280;48112;53.282;6.150;2022-07-09T00:11:40;102755.63;;;21.03;65.14
62126;BME280;48112;53.282;6.150;2022-07-09T00:12:43;102754.84;;;21.02;65.35
62126;BME280;48112;53.282;6.150;2022-07-09T00:13:47;102761.56;;;21.05;65.35
62126;BME280;48112;53.282;6.150;2022-07-09T00:14:49;102756.44;;;21.03;65.07
62126;BME280;48112;53.282;6.150;2022-07-09T00:15:53;102754.84;;;21.02;65.51
62126;BME280;48112;53.282;6.150;2022-07-09T00:16:56;102756.34;;;21.00;65.43
62126;BME280;48112;53.282;6.150;2022-07-09T00:17:59;102759.47;;;20.98;65.48
62126;BME280;48112;53.282;6.150;2022-07-09T00:19:02;102758.69;;;20.98;65.57
62126;BME280;48112;53.282;6.150;2022-07-09T00:20:07;102754.69;;;20.95;65.26
62126;BME280;48112;53.282;6.150;2022-07-09T00:21:11;102745.34;;;20.96;65.73
62126;BME280;48112;53.282;6.150;2022-07-09T00:22:14;102750.66;;;20.89;65.44
62126;BME280;48112;53.282;6.150;2022-07-09T00:23:17;102757.00;;;20.93;65.97
62126;BME280;48112;53.282;6.150;2022-07-09T00:24:20;102755.03;;;20.94;65.75
62126;BME280;48112;53.282;6.150;2022-07-09T00:25:23;102752.28;;;20.94;65.88
62126;BME280;48112;53.282;6.150;2022-07-09T00:26:26;102748.34;;;20.91;65.73
62126;BME280;48112;53.282;6.150;2022-07-09T00:27:28;102755.78;;;20.91;66.03
62126;BME280;48112;53.282;6.150;2022-07-09T00:28:32;102755.78;;;20.91;66.00
62126;BME280;48112;53.282;6.150;2022-07-09T00:29:35;102755.69;;;20.87;65.95
62126;BME280;48112;53.282;6.150;2022-07-09T00:30:38;102752.09;;;20.83;65.90
62126;BME280;48112;53.282;6.150;2022-07-09T00:31:41;102760.78;;;20.85;65.98
62126;BME280;48112;53.282;6.150;2022-07-09T00:32:44;102761.13;;;20.83;66.18
62126;BME280;48112;53.282;6.150;2022-07-09T00:33:47;102756.34;;;20.80;66.19
62126;BME280;48112;53.282;6.150;2022-07-09T00:34:50;102760.28;;;20.79;66.18
62126;BME280;48112;53.282;6.150;2022-07-09T00:35:53;102754.28;;;20.74;66.52
62126;BME280;48112;53.282;6.150;2022-07-09T00:36:58;102756.69;;;20.75;66.36
62126;BME280;48112;53.282;6.150;2022-07-09T00:38:01;102757.81;;;20.74;66.60
62126;BME280;48112;53.282;6.150;2022-07-09T00:39:04;102755.06;;;20.74;66.81
62126;BME280;48112;53.282;6.150;2022-07-09T00:40:10;102757.81;;;20.74;66.80
62126;BME280;48112;53.282;6.150;2022-07-09T00:41:13;102751.88;;;20.72;66.85
62126;BME280;48112;53.282;6.150;2022-07-09T00:42:16;102755.06;;;20.74;66.93
62126;BME280;48112;53.282;6.150;2022-07-09T00:43:21;102753.41;;;20.70;66.71
62126;BME280;48112;53.282;6.150;2022-07-09T00:44:24;102757.38;;;20.72;66.78
62126;BME280;48112;53.282;6.150;2022-07-09T00:45:28;102745.19;;;20.70;67.03
62126;BME280;48112;53.282;6.150;2022-07-09T00:46:31;102742.28;;;20.63;67.05
62126;BME280;48112;53.282;6.150;2022-07-09T00:47:34;102758.91;;;20.70;66.97
62126;BME280;48112;53.282;6.150;2022-07-09T00:48:37;102742.38;;;20.66;66.89
62126;BME280;48112;53.282;6.150;2022-07-09T00:49:42;102753.41;;;20.70;67.05
62126;BME280;48112;53.282;6.150;2022-07-09T00:50:45;102750.31;;;20.71;66.85
62126;BME280;48112;53.282;6.150;2022-07-09T00:51:49;102738.97;;;20.73;66.92
62126;BME280;48112;53.282;6.150;2022-07-09T00:52:54;102750.31;;;20.71;67.01
62126;BME280;48112;53.282;6.150;2022-07-09T00:54:00;102748.38;;;20.72;67.11
62126;BME280;48112;53.282;6.150;2022-07-09T00:55:04;102746.34;;;20.69;67.19
62126;BME280;48112;53.282;6.150;2022-07-09T00:56:08;102749.81;;;20.66;67.33
62126;BME280;48112;53.282;6.150;2022-07-09T00:57:12;102727.00;;;20.62;67.37
62126;BME280;48112;53.282;6.150;2022-07-09T00:58:16;102737.59;;;20.63;67.38
62126;BME280;48112;53.282;6.150;2022-07-09T00:59:20;102730.94;;;20.64;67.44
62126;BME280;48112;53.282;6.150;2022-07-09T01:00:24;102738.41;;;20.64;67.52
62126;BME280;48112;53.282;6.150;2022-07-09T01:01:26;102739.97;;;20.65;67.43
62126;BME280;48112;53.282;6.150;2022-07-09T01:02:31;102743.91;;;20.64;67.60
62126;BME280;48112;53.282;6.150;2022-07-09T01:03:33;102734.41;;;20.61;67.51
62126;BME280;48112;53.282;6.150;2022-07-09T01:04:37;102733.22;;;20.59;67.52
62126;BME280;48112;53.282;6.150;2022-07-09T01:05:41;102729.63;;;20.55;67.71
62126;BME280;48112;53.282;6.150;2022-07-09T01:06:45;102720.94;;;20.53;67.77
62126;BME280;48112;53.282;6.150;2022-07-09T01:07:47;102723.25;;;20.51;67.88
62126;BME280;48112;53.282;6.150;2022-07-09T01:08:52;102723.97;;;20.48;67.92
62126;BME280;48112;53.282;6.150;2022-07-09T01:09:56;102719.22;;;20.45;68.13
62126;BME280;48112;53.282;6.150;2022-07-09T01:11:00;102720.72;;;20.42;68.44
62126;BME280;48112;53.282;6.150;2022-07-09T01:12:04;102720.28;;;20.40;68.49
62126;BME280;48112;53.282;6.150;2022-07-09T01:13:08;102727.72;;;20.40;68.64
62126;BME280;48112;53.282;6.150;2022-07-09T01:14:10;102723.03;;;20.40;68.64
62126;BME280;48112;53.282;6.150;2022-07-09T01:15:14;102719.84;;;20.38;68.61
62126;BME280;48112;53.282;6.150;2022-07-09T01:16:16;102721.38;;;20.36;68.60
62126;BME280;48112;53.282;6.150;2022-07-09T01:17:20;102726.44;;;20.34;68.68
62126;BME280;48112;53.282;6.150;2022-07-09T01:18:22;102710.53;;;20.24;68.98
62126;BME280;48112;53.282;6.150;2022-07-09T01:19:26;102720.50;;;20.32;69.10
62126;BME280;48112;53.282;6.150;2022-07-09T01:20:30;102722.44;;;20.31;69.01
62126;BME280;48112;53.282;6.150;2022-07-09T01:21:34;102720.50;;;20.32;68.97
62126;BME280;48112;53.282;6.150;2022-07-09T01:22:36;102719.34;;;20.33;69.09
62126;BME280;48112;53.282;6.150;2022-07-09T01:23:40;102719.34;;;20.33;69.12
62126;BME280;48112;53.282;6.150;2022-07-09T01:24:42;102712.28;;;20.32;69.06
62126;BME280;48112;53.282;6.150;2022-07-09T01:25:47;102720.50;;;20.32;69.11
62126;BME280;48112;53.282;6.150;2022-07-09T01:26:51;102721.31;;;20.32;69.13
62126;BME280;48112;53.282;6.150;2022-07-09T01:27:55;102720.50;;;20.32;69.04
62126;BME280;48112;53.282;6.150;2022-07-09T01:28:58;102720.88;;;20.30;69.34
62126;BME280;48112;53.282;6.150;2022-07-09T01:30:01;102715.75;;;20.29;69.33
62126;BME280;48112;53.282;6.150;2022-07-09T01:31:04;102713.34;;;20.27;69.57
62126;BME280;48112;53.282;6.150;2022-07-09T01:32:08;102712.56;;;20.27;69.39
62126;BME280;48112;53.282;6.150;2022-07-09T01:33:10;102714.53;;;20.26;69.50
62126;BME280;48112;53.282;6.150;2022-07-09T01:34:15;102700.38;;;20.24;69.66
62126;BME280;48112;53.282;6.150;2022-07-09T01:35:17;102707.78;;;20.24;69.62
62126;BME280;48112;53.282;6.150;2022-07-09T01:36:22;102711.69;;;20.23;69.69
62126;BME280;48112;53.282;6.150;2022-07-09T01:37:24;102715.59;;;20.22;69.56
62126;BME280;48112;53.282;6.150;2022-07-09T01:38:28;102714.00;;;20.21;69.64
62126;BME280;48112;53.282;6.150;2022-07-09T01:39:31;102710.03;;;20.18;69.70
62126;BME280;48112;53.282;6.150;2022-07-09T01:40:34;102709.25;;;20.18;69.80
62126;BME280;48112;53.282;6.150;2022-07-09T01:41:37;102711.97;;;20.18;69.67
62126;BME280;48112;53.282;6.150;2022-07-09T01:42:40;102706.06;;;20.16;69.77
62126;BME280;48112;53.282;6.150;2022-07-09T01:43:43;102697.81;;;20.16;69.94
62126;BME280;48112;53.282;6.150;2022-07-09T01:44:47;102701.72;;;20.15;69.69
62126;BME280;48112;53.282;6.150;2022-07-09T01:45:50;102703.19;;;20.12;70.06
62126;BME280;48112;53.282;6.150;2022-07-09T01:46:54;102702.78;;;20.10;70.13
62126;BME280;48112;53.282;6.150;2022-07-09T01:47:56;102697.66;;;20.09;70.06
62126;BME280;48112;53.282;6.150;2022-07-09T01:49:00;102700.41;;;20.09;70.16
62126;BME280;48112;53.282;6.150;2022-07-09T01:50:03;102695.28;;;20.07;70.27
62126;BME280;48112;53.282;6.150;2022-07-09T01:51:06;102693.31;;;20.08;70.25
62126;BME280;48112;53.282;6.150;2022-07-09T01:52:10;102694.47;;;20.07;70.03
62126;BME280;48112;53.282;6.150;2022-07-09T01:53:14;102682.34;;;20.08;70.03
62126;BME280;48112;53.282;6.150;2022-07-09T01:54:17;102676.09;;;20.07;70.15
62126;BME280;48112;53.282;6.150;2022-07-09T01:55:20;102677.66;;;20.08;70.04
62126;BME280;48112;53.282;6.150;2022-07-09T01:56:23;102678.03;;;20.07;69.98
62126;BME280;48112;53.282;6.150;2022-07-09T01:57:26;102680.03;;;20.10;70.05
62126;BME280;48112;53.282;6.150;2022-07-09T01:58:29;102681.63;;;20.11;70.10
62126;BME280;48112;53.282;6.150;2022-07-09T01:59:33;102677.75;;;20.12;69.96
62126;BME280;48112;53.282;6.150;2022-07-09T02:00:35;102682.44;;;20.11;69.97
62126;BME280;48112;53.282;6.150;2022-07-09T02:01:39;102683.22;;;20.12;69.96
62126;BME280;48112;53.282;6.150;2022-07-09T02:02:41;102687.56;;;20.13;69.86
62126;BME280;48112;53.282;6.150;2022-07-09T02:03:45;102679.31;;;20.13;69.85
62126;BME280;48112;53.282;6.150;2022-07-09T02:04:47;102675.44;;;20.14;69.79
62126;BME280;48112;53.282;6.150;2022-07-09T02:05:51;102682.53;;;20.15;69.69
62126;BME280;48112;53.282;6.150;2022-07-09T02:06:53;102680.94;;;20.14;69.78
62126;BME280;48112;53.282;6.150;2022-07-09T02:07:59;102674.63;;;20.13;69.68
62126;BME280;48112;53.282;6.150;2022-07-09T02:09:02;102675.44;;;20.14;69.58
62126;BME280;48112;53.282;6.150;2022-07-09T02:10:07;102681.63;;;20.11;69.49
62126;BME280;48112;53.282;6.150;2022-07-09T02:11:10;102672.97;;;20.09;69.67
62126;BME280;48112;53.282;6.150;2022-07-09T02:12:13;102677.66;;;20.08;69.81
62126;BME280;48112;53.282;6.150;2022-07-09T02:13:17;102673.25;;;20.04;69.84
62126;BME280;48112;53.282;6.150;2022-07-09T02:14:21;102678.75;;;20.04;69.70
62126;BME280;48112;53.282;6.150;2022-07-09T02:15:23;102677.59;;;20.05;69.71
62126;BME280;48112;53.282;6.150;2022-07-09T02:16:27;102675.19;;;20.03;69.71
62126;BME280;48112;53.282;6.150;2022-07-09T02:17:30;102678.31;;;20.02;69.54
62126;BME280;48112;53.282;6.150;2022-07-09T02:18:34;102672.81;;;20.02;69.95
62126;BME280;48112;53.282;6.150;2022-07-09T02:19:38;102678.31;;;20.02;69.55
62126;BME280;48112;53.282;6.150;2022-07-09T02:20:42;102667.34;;;20.02;69.62
62126;BME280;48112;53.282;6.150;2022-07-09T02:21:44;102672.03;;;20.01;69.56
62126;BME280;48112;53.282;6.150;2022-07-09T02:22:47;102678.31;;;20.02;69.53
62126;BME280;48112;53.282;6.150;2022-07-09T02:23:51;102668.50;;;20.01;69.56
62126;BME280;48112;53.282;6.150;2022-07-09T02:25:00;102670.88;;;20.02;69.45
62126;BME280;48112;53.282;6.150;2022-07-09T02:26:03;102674.00;;;20.01;69.17
62126;BME280;48112;53.282;6.150;2022-07-09T02:27:06;102667.25;;;19.98;69.19
62126;BME280;48112;53.282;6.150;2022-07-09T02:28:09;102660.19;;;19.97;69.46
62126;BME280;48112;53.282;6.150;2022-07-09T02:29:12;102665.69;;;19.97;69.48
62126;BME280;48112;53.282;6.150;2022-07-09T02:30:15;102666.47;;;19.98;69.44
62126;BME280;48112;53.282;6.150;2022-07-09T02:31:18;102661.00;;;19.98;69.47
62126;BME280;48112;53.282;6.150;2022-07-09T02:32:20;102669.22;;;19.98;69.41
62126;BME280;48112;53.282;6.150;2022-07-09T02:33:24;102668.78;;;19.96;69.44
62126;BME280;48112;53.282;6.150;2022-07-09T02:34:32;102654.13;;;19.88;69.64
62126;BME280;48112;53.282;6.150;2022-07-09T02:35:36;102665.59;;;19.94;69.44
62126;BME280;48112;53.282;6.150;2022-07-09T02:36:38;102663.38;;;19.99;69.56
62126;BME280;48112;53.282;6.150;2022-07-09T02:37:42;102668.50;;;20.01;69.37
62126;BME280;48112;53.282;6.150;2022-07-09T02:38:44;102663.78;;;20.01;69.28
62126;BME280;48112;53.282;6.150;2022-07-09T02:39:49;102665.75;;;20.01;69.45
62126;BME280;48112;53.282;6.150;2022-07-09T02:40:51;102661.41;;;20.00;69.33
62126;BME280;48112;53.282;6.150;2022-07-09T02:41:55;102660.69;;;20.03;69.31
62126;BME280;48112;53.282;6.150;2022-07-09T02:42:57;102646.63;;;20.04;69.09
62126;BME280;48112;53.282;6.150;2022-07-09T02:44:00;102648.16;;;20.02;69.15
62126;BME280;48112;53.282;6.150;2022-07-09T02:45:04;102656.00;;;20.03;69.40
62126;BME280;48112;53.282;6.150;2022-07-09T02:46:07;102652.47;;;20.03;69.29
62126;BME280;48112;53.282;6.150;2022-07-09T02:47:09;102651.69;;;20.02;69.33
62126;BME280;48112;53.282;6.150;2022-07-09T02:48:13;102652.47;;;20.03;69.32
62126;BME280;48112;53.282;6.150;2022-07-09T02:49:16;102653.63;;;20.02;69.41
62126;BME280;48112;53.282;6.150;2022-07-09T02:50:19;102643.03;;;20.00;69.43
62126;BME280;48112;53.282;6.150;2022-07-09T02:51:22;102620.22;;;19.96;69.41
62126;BME280;48112;53.282;6.150;2022-07-09T02:52:25;102629.75;;;20.02;69.48
62126;BME280;48112;53.282;6.150;2022-07-09T02:53:28;102632.13;;;20.04;69.30
62126;BME280;48112;53.282;6.150;2022-07-09T02:54:31;102632.91;;;20.04;69.18
62126;BME280;48112;53.282;6.150;2022-07-09T02:55:35;102645.47;;;20.05;69.17
62126;BME280;48112;53.282;6.150;2022-07-09T02:56:38;102633.72;;;20.05;69.20
62126;BME280;48112;53.282;6.150;2022-07-09T02:57:41;102644.69;;;20.05;69.19
62126;BME280;48112;53.282;6.150;2022-07-09T02:58:44;102651.78;;;20.06;69.33
62126;BME280;48112;53.282;6.150;2022-07-09T02:59:47;102651.31;;;20.04;69.25
62126;BME280;48112;53.282;6.150;2022-07-09T03:00:50;102641.13;;;20.04;69.17
62126;BME280;48112;53.282;6.150;2022-07-09T03:01:52;102639.91;;;20.02;69.26
62126;BME280;48112;53.282;6.150;2022-07-09T03:02:57;102641.09;;;20.01;69.23
62126;BME280;48112;53.282;6.150;2022-07-09T03:04:04;102645.31;;;19.98;69.50
62126;BME280;48112;53.282;6.150;2022-07-09T03:05:10;102654.72;;;19.97;69.38
62126;BME280;48112;53.282;6.150;2022-07-09T03:06:14;102633.69;;;19.86;69.43
62126;BME280;48112;53.282;6.150;2022-07-09T03:07:17;102645.97;;;19.92;69.42
62126;BME280;48112;53.282;6.150;2022-07-09T03:08:20;102643.53;;;19.87;69.65
62126;BME280;48112;53.282;6.150;2022-07-09T03:09:25;102645.09;;;19.88;69.57
62126;BME280;48112;53.282;6.150;2022-07-09T03:10:28;102638.75;;;19.84;69.79
62126;BME280;48112;53.282;6.150;2022-07-09T03:11:33;102641.84;;;19.82;69.75
62126;BME280;48112;53.282;6.150;2022-07-09T03:12:35;102644.59;;;19.82;69.92
62126;BME280;48112;53.282;6.150;2022-07-09T03:13:39;102649.28;;;19.82;69.91
62126;BME280;48112;53.282;6.150;2022-07-09T03:14:41;102643.00;;;19.81;70.00
62126;BME280;48112;53.282;6.150;2022-07-09T03:15:44;102644.59;;;19.82;69.94
62126;BME280;48112;53.282;6.150;2022-07-09T03:16:47;102639.91;;;19.83;70.14
62126;BME280;48112;53.282;6.150;2022-07-09T03:17:50;102635.59;;;19.82;70.03
62126;BME280;48112;53.282;6.150;2022-07-09T03:18:53;102640.34;;;19.85;70.16
62126;BME280;48112;53.282;6.150;2022-07-09T03:19:56;102636.44;;;19.86;69.89
62126;BME280;48112;53.282;6.150;2022-07-09T03:20:59;102636.44;;;19.86;69.83
62126;BME280;48112;53.282;6.150;2022-07-09T03:22:04;102630.97;;;19.86;70.00
62126;BME280;48112;53.282;6.150;2022-07-09T03:23:06;102635.63;;;19.85;69.99
62126;BME280;48112;53.282;6.150;2022-07-09T03:24:10;102627.78;;;19.84;69.92
62126;BME280;48112;53.282;6.150;2022-07-09T03:25:12;102628.50;;;19.81;70.16
62126;BME280;48112;53.282;6.150;2022-07-09T03:26:15;102626.13;;;19.79;70.21
62126;BME280;48112;53.282;6.150;2022-07-09T03:27:19;102621.34;;;19.76;70.21
62126;BME280;48112;53.282;6.150;2022-07-09T03:28:23;102620.16;;;19.74;70.24
62126;BME280;48112;53.282;6.150;2022-07-09T03:29:25;102622.88;;;19.74;70.31
62126;BME280;48112;53.282;6.150;2022-07-09T03:30:28;102621.63;;;19.71;70.34
62126;BME280;48112;53.282;6.150;2022-07-09T03:31:31;102618.91;;;19.71;70.48
62126;BME280;48112;53.282;6.150;2022-07-09T03:32:34;102620.41;;;19.69;70.58
62126;BME280;48112;53.282;6.150;2022-07-09T03:33:37;102627.44;;;19.66;70.56
62126;BME280;48112;53.282;6.150;2022-07-09T03:34:40;102623.06;;;19.65;70.54
62126;BME280;48112;53.282;6.150;2022-07-09T03:35:43;102628.91;;;19.64;70.68
62126;BME280;48112;53.282;6.150;2022-07-09T03:36:46;102619.41;;;19.58;70.61
62126;BME280;48112;53.282;6.150;2022-07-09T03:37:50;102627.34;;;19.63;70.82
62126;BME280;48112;53.282;6.150;2022-07-09T03:38:52;102624.97;;;19.61;70.64
62126;BME280;48112;53.282;6.150;2022-07-09T03:39:56;102629.63;;;19.61;70.90
62126;BME280;48112;53.282;6.150;2022-07-09T03:40:58;102621.06;;;19.62;70.93
62126;BME280;48112;53.282;6.150;2022-07-09T03:42:02;102629.63;;;19.61;70.94
62126;BME280;48112;53.282;6.150;2022-07-09T03:43:09;102623.44;;;19.64;70.97
62126;BME280;48112;53.282;6.150;2022-07-09T03:44:12;102632.47;;;19.64;70.75
62126;BME280;48112;53.282;6.150;2022-07-09T03:45:15;102623.06;;;19.65;70.83
62126;BME280;48112;53.282;6.150;2022-07-09T03:46:18;102622.28;;;19.65;70.72
62126;BME280;48112;53.282;6.150;2022-07-09T03:47:21;102623.06;;;19.65;70.88
62126;BME280;48112;53.282;6.150;2022-07-09T03:48:24;102601.38;;;19.57;70.83
62126;BME280;48112;53.282;6.150;2022-07-09T03:49:27;102614.50;;;19.67;70.71
62126;BME280;48112;53.282;6.150;2022-07-09T03:50:30;102613.72;;;19.66;70.80
62126;BME280;48112;53.282;6.150;2022-07-09T03:51:33;102614.06;;;19.65;70.66
62126;BME280;48112;53.282;6.150;2022-07-09T03:52:36;102618.69;;;19.61;70.87
62126;BME280;48112;53.282;6.150;2022-07-09T03:53:39;102611.63;;;19.60;70.75
62126;BME280;48112;53.282;6.150;2022-07-09T03:54:42;102612.75;;;19.59;70.72
62126;BME280;48112;53.282;6.150;2022-07-09T03:55:45;102615.84;;;19.57;70.88
62126;BME280;48112;53.282;6.150;2022-07-09T03:56:48;102603.50;;;19.48;70.89
62126;BME280;48112;53.282;6.150;2022-07-09T03:57:51;102607.56;;;19.54;70.99
62126;BME280;48112;53.282;6.150;2022-07-09T03:58:56;102617.81;;;19.57;70.98
62126;BME280;48112;53.282;6.150;2022-07-09T04:00:00;102604.03;;;19.53;70.71
62126;BME280;48112;53.282;6.150;2022-07-09T04:01:02;102593.72;;;19.47;71.00
62126;BME280;48112;53.282;6.150;2022-07-09T04:02:06;102604.13;;;19.57;70.88
62126;BME280;48112;53.282;6.150;2022-07-09T04:03:14;102605.63;;;19.54;70.93
62126;BME280;48112;53.282;6.150;2022-07-09T04:04:18;102605.63;;;19.54;70.78
62126;BME280;48112;53.282;6.150;2022-07-09T04:05:20;102606.78;;;19.53;70.93
62126;BME280;48112;53.282;6.150;2022-07-09T04:06:23;102613.38;;;19.52;70.91
62126;BME280;48112;53.282;6.150;2022-07-09T04:07:26;102606.69;;;19.50;71.01
62126;BME280;48112;53.282;6.150;2022-07-09T04:08:29;102617.66;;;19.50;71.07
62126;BME280;48112;53.282;6.150;2022-07-09T04:09:32;102618.44;;;19.50;71.09
62126;BME280;48112;53.282;6.150;2022-07-09T04:10:35;102615.34;;;19.52;71.14
62126;BME280;48112;53.282;6.150;2022-07-09T04:11:38;102620.84;;;19.52;71.13
62126;BME280;48112;53.282;6.150;2022-07-09T04:12:41;102621.25;;;19.54;70.97
62126;BME280;48112;53.282;6.150;2022-07-09T04:13:44;102619.31;;;19.54;70.90
62126;BME280;48112;53.282;6.150;2022-07-09T04:14:49;102613.84;;;19.54;71.01
62126;BME280;48112;53.282;6.150;2022-07-09T04:15:51;102620.13;;;19.55;70.99
62126;BME280;48112;53.282;6.150;2022-07-09T04:16:54;102603.50;;;19.48;71.16
62126;BME280;48112;53.282;6.150;2022-07-09T04:17:57;102622.06;;;19.54;70.98
62126;BME280;48112;53.282;6.150;2022-07-09T04:19:00;102620.13;;;19.55;71.10
62126;BME280;48112;53.282;6.150;2022-07-09T04:20:04;102619.31;;;19.54;70.91
62126;BME280;48112;53.282;6.150;2022-07-09T04:21:07;102621.69;;;19.56;70.94
62126;BME280;48112;53.282;6.150;2022-07-09T04:22:10;102609.94;;;19.55;70.97
62126;BME280;48112;53.282;6.150;2022-07-09T04:23:13;102632.66;;;19.56;70.92
62126;BME280;48112;53.282;6.150;2022-07-09T04:24:16;102622.13;;;19.58;70.87
62126;BME280;48112;53.282;6.150;2022-07-09T04:25:19;102622.13;;;19.58;70.92
62126;BME280;48112;53.282;6.150;2022-07-09T04:26:23;102628.78;;;19.57;70.95
62126;BME280;48112;53.282;6.150;2022-07-09T04:27:27;102627.63;;;19.58;70.86
62126;BME280;48112;53.282;6.150;2022-07-09T04:28:29;102624.88;;;19.58;71.01
62126;BME280;48112;53.282;6.150;2022-07-09T04:29:33;102617.47;;;19.58;71.30
62126;BME280;48112;53.282;6.150;2022-07-09T04:30:38;102623.31;;;19.57;71.03
62126;BME280;48112;53.282;6.150;2022-07-09T04:31:42;102625.69;;;19.58;71.05
62126;BME280;48112;53.282;6.150;2022-07-09T04:32:45;102621.69;;;19.56;71.07
62126;BME280;48112;53.282;6.150;2022-07-09T04:33:48;102624.16;;;19.61;70.87
62126;BME280;48112;53.282;6.150;2022-07-09T04:34:51;102632.38;;;19.61;70.75
62126;BME280;48112;53.282;6.150;2022-07-09T04:35:54;102631.84;;;19.55;71.28
62126;BME280;48112;53.282;6.150;2022-07-09T04:36:57;102628.47;;;19.62;70.89
62126;BME280;48112;53.282;6.150;2022-07-09T04:38:00;102636.69;;;19.62;71.01
62126;BME280;48112;53.282;6.150;2022-07-09T04:39:03;102636.34;;;19.63;70.95
62126;BME280;48112;53.282;6.150;2022-07-09T04:40:07;102623.06;;;19.65;70.91
62126;BME280;48112;53.282;6.150;2022-07-09T04:41:10;102621.94;;;19.66;70.85
62126;BME280;48112;53.282;6.150;2022-07-09T04:42:13;102625.09;;;19.68;70.70
62126;BME280;48112;53.282;6.150;2022-07-09T04:43:16;102622.00;;;19.70;70.88
62126;BME280;48112;53.282;6.150;2022-07-09T04:44:20;102618.84;;;19.68;70.70
62126;BME280;48112;53.282;6.150;2022-07-09T04:45:22;102622.72;;;19.67;70.84
62126;BME280;48112;53.282;6.150;2022-07-09T04:46:27;102618.84;;;19.68;70.78
62126;BME280;48112;53.282;6.150;2022-07-09T04:47:32;102620.06;;;19.70;70.74
62126;BME280;48112;53.282;6.150;2022-07-09T04:48:36;102627.94;;;19.72;70.74
62126;BME280;48112;53.282;6.150;2022-07-09T04:49:39;102622.88;;;19.74;70.73
62126;BME280;48112;53.282;6.150;2022-07-09T04:50:42;102628.00;;;19.75;70.64
62126;BME280;48112;53.282;6.150;2022-07-09T04:51:45;102622.88;;;19.74;70.61
62126;BME280;48112;53.282;6.150;2022-07-09T04:52:48;102623.75;;;19.78;70.65
62126;BME280;48112;53.282;6.150;2022-07-09T04:53:50;102614.22;;;19.72;70.52
62126;BME280;48112;53.282;6.150;2022-07-09T04:54:54;102626.13;;;19.79;70.49
62126;BME280;48112;53.282;6.150;2022-07-09T04:55:56;102622.28;;;19.84;70.66
62126;BME280;48112;53.282;6.150;2022-07-09T04:57:00;102627.41;;;19.85;70.57
62126;BME280;48112;53.282;6.150;2022-07-09T04:58:02;102620.00;;;19.86;70.64
62126;BME280;48112;53.282;6.150;2022-07-09T04:59:05;102612.56;;;19.86;70.50
62126;BME280;48112;53.282;6.150;2022-07-09T05:00:09;102623.63;;;19.90;70.22
62126;BME280;48112;53.282;6.150;2022-07-09T05:01:13;102625.19;;;19.91;70.36
62126;BME280;48112;53.282;6.150;2022-07-09T05:02:17;102629.50;;;19.92;70.31
62126;BME280;48112;53.282;6.150;2022-07-09T05:03:21;102620.56;;;19.95;70.29
62126;BME280;48112;53.282;6.150;2022-07-09T05:04:23;102621.00;;;19.97;70.60
62126;BME280;48112;53.282;6.150;2022-07-09T05:05:27;102621.09;;;20.00;70.32
62126;BME280;48112;53.282;6.150;2022-07-09T05:06:30;102623.38;;;19.98;70.39
62126;BME280;48112;53.282;6.150;2022-07-09T05:07:33;102625.84;;;20.03;70.30
62126;BME280;48112;53.282;6.150;2022-07-09T05:08:36;102624.34;;;20.06;70.09
62126;BME280;48112;53.282;6.150;2022-07-09T05:09:39;102632.97;;;20.08;69.99
62126;BME280;48112;53.282;6.150;2022-07-09T05:10:42;102625.13;;;20.06;70.05
62126;BME280;48112;53.282;6.150;2022-07-09T05:11:45;102631.84;;;20.09;69.92
62126;BME280;48112;53.282;6.150;2022-07-09T05:12:48;102631.03;;;20.08;70.11
62126;BME280;48112;53.282;6.150;2022-07-09T05:13:51;102632.97;;;20.08;69.95
62126;BME280;48112;53.282;6.150;2022-07-09T05:14:54;102629.09;;;20.09;69.82
62126;BME280;48112;53.282;6.150;2022-07-09T05:15:57;102617.25;;;20.05;69.80
62126;BME280;48112;53.282;6.150;2022-07-09T05:17:01;102630.25;;;20.08;70.22
62126;BME280;48112;53.282;6.150;2022-07-09T05:18:05;102625.56;;;20.08;70.00
62126;BME280;48112;53.282;6.150;2022-07-09T05:19:08;102620.44;;;20.07;70.12
62126;BME280;48112;53.282;6.150;2022-07-09T05:20:11;102626.38;;;20.09;70.30
62126;BME280;48112;53.282;6.150;2022-07-09T05:21:14;102615.75;;;20.07;70.17
62126;BME280;48112;53.282;6.150;2022-07-09T05:22:17;102622.00;;;20.08;70.29
62126;BME280;48112;53.282;6.150;2022-07-09T05:23:20;102622.44;;;20.10;70.16
62126;BME280;48112;53.282;6.150;2022-07-09T05:24:23;102625.63;;;20.12;70.31
62126;BME280;48112;53.282;6.150;2022-07-09T05:25:26;102624.47;;;20.13;69.96
62126;BME280;48112;53.282;6.150;2022-07-09T05:26:29;102619.47;;;20.15;70.11
62126;BME280;48112;53.282;6.150;2022-07-09T05:27:40;102624.56;;;20.16;70.03
62126;BME280;48112;53.282;6.150;2022-07-09T05:28:43;102620.31;;;20.19;69.96
62126;BME280;48112;53.282;6.150;2022-07-09T05:29:46;102613.25;;;20.18;70.07
62126;BME280;48112;53.282;6.150;2022-07-09T05:30:48;102620.75;;;20.21;70.09
62126;BME280;48112;53.282;6.150;2022-07-09T05:32:12;102620.00;;;20.24;69.91